Time;durP1;ratioP1;P1;durP2;ratioP2;P2;SDS_P1;SDS_P2;PMS_P1;PMS_P2;Temp;Humidity;BMP_temperature;BMP_pressure;BME280_temperature;BME280_humidity;BME280_pressure;Samples;Min_cycle;Max_cycle;Signal;HPM_P1;HPM_P2
2021/07/21 00:00:32;;;;;;;7.82;6.20;;;17.10;97.10;;;;;;5008216;28;20026;-74
2021/07/21 00:02:58;;;;;;;9.85;7.13;;;17.10;97.30;;;;;;5008018;28;20112;-76
2021/07/21 00:05:26;;;;;;;9.45;6.00;;;17.10;97.30;;;;;;5007643;28;20120;-76
2021/07/21 00:07:52;;;;;;;10.57;7.53;;;17.10;97.50;;;;;;5006268;28;20025;-75
2021/07/21 00:10:20;;;;;;;8.15;6.60;;;17.10;97.90;;;;;;5007255;28;20066;-75
2021/07/21 00:15:35;;;;;;;11.02;7.38;;;17.00;97.90;;;;;;5009688;28;20168;-75
2021/07/21 00:18:03;;;;;;;10.45;7.40;;;17.00;98.00;;;;;;5010078;28;20105;-75
2021/07/21 00:20:32;;;;;;;8.32;6.40;;;17.00;98.10;;;;;;5009589;28;20396;-75
2021/07/21 00:22:59;;;;;;;11.52;7.15;;;16.90;98.20;;;;;;5011249;28;20030;-75
2021/07/21 00:25:25;;;;;;;8.15;6.35;;;16.90;98.40;;;;;;5010910;28;20022;-75
2021/07/21 00:27:50;;;;;;;8.82;6.13;;;16.90;98.40;;;;;;5009464;28;20022;-77
2021/07/21 00:30:18;;;;;;;9.98;6.78;;;16.90;98.60;;;;;;5010796;28;20033;-76
2021/07/21 00:32:47;;;;;;;8.73;6.68;;;16.90;98.60;;;;;;5006748;28;20509;-76
2021/07/21 00:35:15;;;;;;;9.73;7.00;;;16.80;98.80;;;;;;5007039;28;20038;-75
2021/07/21 00:37:41;;;;;;;8.48;6.20;;;16.80;99.00;;;;;;5010454;28;20099;-76
2021/07/21 00:40:10;;;;;;;13.90;10.23;;;16.80;99.30;;;;;;5009668;28;20026;-76
2021/07/21 00:42:36;;;;;;;10.93;8.02;;;16.80;99.30;;;;;;5008550;28;20061;-76
2021/07/21 00:45:02;;;;;;;9.10;7.20;;;16.80;99.50;;;;;;5010303;28;20683;-76
2021/07/21 00:47:28;;;;;;;15.07;11.23;;;;;;;;;;5010867;28;20041;-76
2021/07/21 00:49:54;;;;;;;10.77;7.78;;;;;;;;;;5007549;28;20026;-75
2021/07/21 00:52:20;;;;;;;12.77;7.35;;;16.70;99.70;;;;;;5007286;28;20132;-76
2021/07/21 00:54:46;;;;;;;9.25;6.90;;;16.70;99.90;;;;;;5009805;28;20026;-76
2021/07/21 00:57:13;;;;;;;12.75;7.07;;;16.70;99.90;;;;;;5007662;28;20476;-76
2021/07/21 00:59:50;;;;;;;10.48;7.47;;;16.70;99.90;;;;;;5008985;28;20092;-76
2021/07/21 01:02:16;;;;;;;8.73;6.93;;;16.70;99.90;;;;;;5006427;28;20022;-75
2021/07/21 01:04:42;;;;;;;11.80;9.38;;;16.70;99.90;;;;;;5010238;28;20040;-75
2021/07/21 01:07:08;;;;;;;10.13;8.20;;;16.60;99.90;;;;;;5009885;28;20066;-76
2021/07/21 01:09:37;;;;;;;10.77;7.13;;;16.70;99.90;;;;;;5008972;28;20045;-76
2021/07/21 01:12:23;;;;;;;16.38;11.52;;;16.60;99.90;;;;;;5008062;28;20030;-76
2021/07/21 01:15:22;;;;;;;10.43;8.52;;;16.60;99.90;;;;;;5006247;28;20026;-76
2021/07/21 01:17:51;;;;;;;14.23;9.63;;;16.60;99.90;;;;;;5004656;28;20088;-74
2021/07/21 01:20:34;;;;;;;10.10;7.35;;;16.60;99.90;;;;;;5009611;28;20045;-75
2021/07/21 01:23:29;;;;;;;10.15;8.35;;;16.60;99.90;;;;;;5008189;28;20029;-75
2021/07/21 01:26:07;;;;;;;9.70;7.80;;;16.50;99.90;;;;;;5006814;28;20033;-75
2021/07/21 01:28:33;;;;;;;14.40;9.02;;;16.50;99.90;;;;;;5005786;28;20034;-75
2021/07/21 01:31:01;;;;;;;8.38;6.70;;;16.50;99.90;;;;;;5010061;28;20041;-76
2021/07/21 01:33:29;;;;;;;9.73;7.45;;;16.50;99.90;;;;;;5009074;28;20504;-76
2021/07/21 01:36:11;;;;;;;14.48;10.30;;;16.50;99.90;;;;;;5009681;28;20051;-76
2021/07/21 01:38:43;;;;;;;14.05;10.18;;;16.50;99.90;;;;;;5008960;28;20022;-76
2021/07/21 01:41:33;;;;;;;13.48;8.13;;;16.40;99.90;;;;;;5008586;28;20026;-75
2021/07/21 01:44:03;;;;;;;11.25;8.07;;;16.40;99.90;;;;;;5007837;28;20022;-76
2021/07/21 01:46:30;;;;;;;9.90;7.20;;;16.40;99.90;;;;;;5010023;28;20487;-76
2021/07/21 01:48:57;;;;;;;10.27;7.40;;;16.40;99.90;;;;;;5008588;28;20079;-76
2021/07/21 01:51:29;;;;;;;9.77;7.60;;;16.40;99.90;;;;;;4991891;28;20450;-75
2021/07/21 01:53:55;;;;;;;12.07;7.60;;;16.40;99.90;;;;;;5006955;28;20026;-75
2021/07/21 01:56:22;;;;;;;10.38;7.55;;;16.40;99.90;;;;;;5009192;28;20033;-75
2021/07/21 01:58:52;;;;;;;11.77;8.48;;;16.30;99.90;;;;;;5009785;28;20045;-75
2021/07/21 02:01:18;;;;;;;12.38;8.15;;;16.30;99.90;;;;;;4999852;28;20035;-76
2021/07/21 02:03:45;;;;;;;11.30;8.30;;;16.30;99.90;;;;;;5009223;28;20026;-76
2021/07/21 02:06:11;;;;;;;10.55;7.45;;;16.20;99.90;;;;;;5008836;28;20476;-76
2021/07/21 02:08:37;;;;;;;11.02;7.30;;;16.30;99.90;;;;;;5009102;28;20748;-75
2021/07/21 02:11:07;;;;;;;14.13;8.90;;;16.30;99.90;;;;;;5008136;28;20036;-77
2021/07/21 02:13:34;;;;;;;10.63;7.20;;;16.20;99.90;;;;;;5008527;28;20033;-79
2021/07/21 02:16:02;;;;;;;10.27;7.68;;;16.20;99.90;;;;;;5008759;28;20053;-77
2021/07/21 02:18:28;;;;;;;9.38;7.50;;;16.10;99.90;;;;;;5009119;28;20018;-75
2021/07/21 02:20:56;;;;;;;9.93;7.60;;;16.10;99.90;;;;;;5007850;28;20049;-75
2021/07/21 02:23:26;;;;;;;10.35;7.60;;;16.20;99.90;;;;;;5008269;28;20120;-76
2021/07/21 02:25:53;;;;;;;10.73;7.72;;;16.10;99.90;;;;;;5004516;28;20026;-75
2021/07/21 02:28:18;;;;;;;11.85;8.93;;;16.10;99.90;;;;;;5004597;28;20029;-76
2021/07/21 02:30:48;;;;;;;11.68;7.65;;;16.10;99.90;;;;;;5008444;28;20382;-76
2021/07/21 02:33:19;;;;;;;10.60;8.13;;;16.10;99.90;;;;;;5004110;28;20411;-76
2021/07/21 02:35:45;;;;;;;10.70;8.18;;;16.10;99.90;;;;;;5008970;28;20030;-76
2021/07/21 02:38:13;;;;;;;15.77;8.27;;;16.10;99.90;;;;;;5008417;28;20026;-77
2021/07/21 02:40:39;;;;;;;9.73;8.00;;;16.10;99.90;;;;;;5008455;28;20070;-77
2021/07/21 02:43:05;;;;;;;11.95;8.38;;;16.20;99.90;;;;;;5006518;28;20018;-76
2021/07/21 02:45:31;;;;;;;11.73;8.18;;;16.10;99.90;;;;;;5005253;28;20109;-75
2021/07/21 02:47:56;;;;;;;9.85;7.57;;;16.20;99.90;;;;;;5008542;28;20129;-76
2021/07/21 02:50:22;;;;;;;13.25;8.25;;;16.20;99.90;;;;;;5007939;28;20037;-76
2021/07/21 02:52:59;;;;;;;11.50;8.65;;;16.20;99.90;;;;;;5006844;28;20037;-75
2021/07/21 02:55:41;;;;;;;13.32;8.38;;;16.10;99.90;;;;;;5004627;28;20033;-75
2021/07/21 02:58:17;;;;;;;12.45;8.30;;;16.20;99.90;;;;;;5008257;28;20026;-75
2021/07/21 03:00:44;;;;;;;11.90;7.97;;;16.20;99.90;;;;;;5008300;28;20030;-75
2021/07/21 03:03:11;;;;;;;11.02;7.75;;;16.30;99.90;;;;;;5002561;28;20026;-76
2021/07/21 03:05:38;;;;;;;11.98;7.53;;;16.30;99.90;;;;;;5004826;28;20026;-75
2021/07/21 03:08:05;;;;;;;11.55;7.63;;;16.30;99.90;;;;;;5006580;28;20033;-75
2021/07/21 03:10:31;;;;;;;9.88;7.70;;;16.40;99.90;;;;;;5007900;28;20029;-76
2021/07/21 03:13:05;;;;;;;11.63;8.77;;;16.40;99.90;;;;;;5006901;28;20038;-75
2021/07/21 03:15:34;;;;;;;21.98;9.13;;;16.40;99.90;;;;;;5007967;28;20101;-76
2021/07/21 03:18:02;;;;;;;8.88;7.55;;;16.40;99.90;;;;;;5007136;28;20053;-76
2021/07/21 03:20:28;;;;;;;12.30;9.27;;;16.40;99.90;;;;;;5007959;28;20029;-75
2021/07/21 03:22:57;;;;;;;9.85;7.68;;;16.50;99.90;;;;;;5006161;28;20030;-76
2021/07/21 03:25:25;;;;;;;10.73;7.55;;;16.50;99.90;;;;;;5007573;28;20384;-77
2021/07/21 03:27:54;;;;;;;12.43;8.75;;;16.60;99.90;;;;;;5003939;28;20041;-76
2021/07/21 03:30:20;;;;;;;14.15;10.15;;;16.70;99.90;;;;;;5003772;28;20038;-76
2021/07/21 03:32:47;;;;;;;15.30;10.55;;;16.70;99.90;;;;;;5007408;28;20050;-76
2021/07/21 03:35:15;;;;;;;12.38;9.02;;;16.80;99.90;;;;;;4989391;28;20042;-76
2021/07/21 03:37:43;;;;;;;12.77;9.32;;;16.70;99.90;;;;;;5007700;28;20022;-76
2021/07/21 03:40:09;;;;;;;13.77;8.77;;;16.70;99.90;;;;;;4990036;28;20022;-76
2021/07/21 03:42:35;;;;;;;14.90;8.88;;;16.80;99.90;;;;;;5007653;28;20084;-76
2021/07/21 03:45:10;;;;;;;14.88;10.73;;;16.80;99.90;;;;;;5007702;28;20550;-75
2021/07/21 03:47:36;;;;;;;17.27;12.07;;;17.00;99.90;;;;;;5008690;28;20034;-77
2021/07/21 03:50:04;;;;;;;13.13;8.95;;;17.00;99.90;;;;;;5011743;28;20030;-77
2021/07/21 03:52:31;;;;;;;15.85;9.88;;;16.90;99.90;;;;;;5011405;28;20535;-75
2021/07/21 03:54:57;;;;;;;20.15;12.13;;;17.00;99.90;;;;;;5010050;28;20500;-74
2021/07/21 03:57:24;;;;;;;12.60;8.98;;;17.00;99.90;;;;;;5011583;28;20026;-76
2021/07/21 03:59:50;;;;;;;14.30;9.48;;;17.00;99.90;;;;;;5011397;28;20045;-75
2021/07/21 04:02:16;;;;;;;13.30;9.95;;;17.00;99.90;;;;;;5011222;28;20030;-76
2021/07/21 04:04:47;;;;;;;14.07;8.77;;;17.00;99.90;;;;;;5011503;28;20036;-76
2021/07/21 04:07:17;;;;;;;11.63;8.37;;;17.00;99.90;;;;;;5009150;28;20033;-76
2021/07/21 04:09:45;;;;;;;15.43;9.17;;;17.10;99.90;;;;;;5011373;28;20029;-76
2021/07/21 04:12:14;;;;;;;17.17;10.77;;;17.10;99.90;;;;;;5011074;28;20037;-75
2021/07/21 04:14:43;;;;;;;27.58;17.02;;;17.10;99.90;;;;;;5011037;28;20034;-75
2021/07/21 04:17:09;;;;;;;14.57;9.82;;;17.10;99.90;;;;;;5009191;28;20448;-75
2021/07/21 04:19:37;;;;;;;13.65;8.13;;;17.00;99.90;;;;;;5010619;28;20029;-76
2021/07/21 04:22:03;;;;;;;17.23;10.57;;;17.20;99.90;;;;;;5010596;28;20506;-75
2021/07/21 04:24:29;;;;;;;13.18;9.25;;;17.20;99.90;;;;;;5010704;28;20439;-76
2021/07/21 04:26:57;;;;;;;11.68;7.93;;;17.30;99.90;;;;;;5010448;28;20030;-74
2021/07/21 04:29:25;;;;;;;14.27;9.30;;;17.30;99.90;;;;;;5006810;28;20453;-74
2021/07/21 04:31:52;;;;;;;14.25;8.15;;;17.30;99.90;;;;;;5006413;28;20221;-73
2021/07/21 04:34:18;;;;;;;15.85;9.45;;;17.30;99.90;;;;;;5010199;28;20056;-73
2021/07/21 04:36:46;;;;;;;12.00;8.38;;;17.40;99.90;;;;;;5011091;28;20060;-74
2021/07/21 04:39:18;;;;;;;13.43;9.10;;;17.50;99.90;;;;;;5009793;28;20096;-74
2021/07/21 04:41:44;;;;;;;10.40;7.78;;;17.60;99.90;;;;;;5007653;28;20026;-74
2021/07/21 04:44:10;;;;;;;11.95;8.75;;;17.70;99.90;;;;;;5010174;28;20033;-74
2021/07/21 04:46:36;;;;;;;12.45;8.68;;;17.70;99.90;;;;;;5011890;28;20029;-73
2021/07/21 04:49:03;;;;;;;13.65;8.75;;;17.80;99.90;;;;;;5013449;28;20026;-74
2021/07/21 04:51:31;;;;;;;14.15;8.13;;;17.80;99.90;;;;;;5009553;28;20036;-74
2021/07/21 04:54:02;;;;;;;11.20;8.07;;;17.80;99.90;;;;;;5007307;28;20029;-74
2021/07/21 04:56:27;;;;;;;11.32;7.95;;;17.90;99.90;;;;;;5010423;28;20469;-74
2021/07/21 04:58:53;;;;;;;11.90;8.18;;;17.80;99.90;;;;;;5008960;28;20034;-74
2021/07/21 05:01:19;;;;;;;9.88;7.57;;;17.90;99.90;;;;;;5009633;28;20336;-73
2021/07/21 05:03:44;;;;;;;9.60;7.55;;;17.90;99.90;;;;;;5003750;28;20030;-73
2021/07/21 05:06:10;;;;;;;10.50;7.35;;;17.90;99.90;;;;;;5009514;28;20049;-74
2021/07/21 05:08:35;;;;;;;10.95;8.23;;;17.90;99.90;;;;;;5009539;28;20557;-73
2021/07/21 05:11:01;;;;;;;11.48;8.23;;;17.90;99.90;;;;;;5009054;28;20026;-74
2021/07/21 05:13:26;;;;;;;9.85;7.07;;;17.80;99.90;;;;;;5009561;28;20112;-73
2021/07/21 05:15:52;;;;;;;12.95;8.35;;;17.80;99.90;;;;;;5005709;28;20434;-73
2021/07/21 05:18:18;;;;;;;11.23;8.02;;;17.80;99.90;;;;;;5007597;28;20036;-74
2021/07/21 05:20:43;;;;;;;12.23;8.40;;;17.80;99.90;;;;;;5004909;28;20030;-73
2021/07/21 05:23:09;;;;;;;11.20;8.55;;;17.70;99.90;;;;;;5005490;28;20026;-72
2021/07/21 05:25:39;;;;;;;12.73;8.25;;;17.70;99.90;;;;;;5007082;28;20037;-74
2021/07/21 05:28:07;;;;;;;11.00;7.73;;;17.80;99.90;;;;;;5007437;28;20199;-73
2021/07/21 05:30:33;;;;;;;11.48;7.88;;;17.80;99.90;;;;;;5007976;28;20026;-74
2021/07/21 05:32:59;;;;;;;13.07;7.57;;;17.80;99.90;;;;;;5008874;28;20029;-73
2021/07/21 05:35:25;;;;;;;12.35;7.53;;;17.90;99.90;;;;;;5008385;28;20043;-76
2021/07/21 05:37:50;;;;;;;14.13;8.57;;;17.90;99.90;;;;;;5009245;28;20029;-76
2021/07/21 05:40:16;;;;;;;9.88;7.15;;;18.00;99.90;;;;;;5005659;28;20101;-77
2021/07/21 05:42:41;;;;;;;12.43;8.45;;;18.10;99.90;;;;;;5009349;28;20375;-75
2021/07/21 05:45:07;;;;;;;11.30;8.00;;;18.20;99.90;;;;;;5004479;28;20026;-75
2021/07/21 05:47:33;;;;;;;10.95;7.68;;;18.20;99.90;;;;;;5005768;28;20491;-75
2021/07/21 05:49:59;;;;;;;13.50;8.25;;;18.20;99.90;;;;;;5004970;28;20034;-76
2021/07/21 05:52:24;;;;;;;9.75;7.30;;;18.30;99.90;;;;;;5008703;28;20025;-75
2021/07/21 05:54:50;;;;;;;11.85;7.78;;;18.40;99.90;;;;;;4989266;28;20471;-76
2021/07/21 05:57:16;;;;;;;11.30;7.88;;;18.50;99.90;;;;;;5009124;28;20037;-76
2021/07/21 05:59:41;;;;;;;13.68;8.52;;;18.50;99.90;;;;;;5009469;28;20021;-75
2021/07/21 06:02:07;;;;;;;13.02;8.43;;;18.60;99.90;;;;;;5009020;28;20087;-76
2021/07/21 06:04:33;;;;;;;11.73;7.40;;;18.70;99.90;;;;;;5008417;28;20040;-76
2021/07/21 06:07:00;;;;;;;13.95;7.43;;;18.70;99.90;;;;;;5009150;28;20109;-76
2021/07/21 06:09:26;;;;;;;13.77;7.85;;;18.80;99.90;;;;;;5008241;28;20487;-76
2021/07/21 06:11:51;;;;;;;12.18;7.57;;;18.90;99.90;;;;;;5007536;28;20056;-76
2021/07/21 06:14:17;;;;;;;12.63;8.00;;;19.00;99.90;;;;;;5007825;28;20117;-75
2021/07/21 06:16:42;;;;;;;10.82;7.15;;;19.20;99.90;;;;;;5008155;28;20018;-76
2021/07/21 06:19:08;;;;;;;11.25;7.22;;;19.10;99.90;;;;;;5007643;28;20030;-75
2021/07/21 06:21:34;;;;;;;10.30;7.32;;;19.30;99.90;;;;;;5007614;28;20364;-76
2021/07/21 06:24:00;;;;;;;10.85;7.75;;;19.40;99.90;;;;;;5008375;28;20033;-75
2021/07/21 06:26:25;;;;;;;9.10;6.70;;;19.60;99.90;;;;;;5008072;28;20033;-76
2021/07/21 06:28:51;;;;;;;10.25;7.93;;;19.80;99.90;;;;;;5008148;28;20179;-75
2021/07/21 06:31:17;;;;;;;10.07;6.88;;;19.90;99.90;;;;;;5007527;28;20081;-75
2021/07/21 06:33:43;;;;;;;8.55;6.53;;;20.00;99.90;;;;;;5008274;28;20045;-75
2021/07/21 06:36:09;;;;;;;9.70;6.32;;;20.00;99.90;;;;;;5007183;28;20588;-75
2021/07/21 06:38:34;;;;;;;11.00;7.35;;;20.00;99.90;;;;;;5008125;28;20109;-75
2021/07/21 06:41:01;;;;;;;12.07;7.18;;;20.20;99.90;;;;;;5007911;28;20484;-76
2021/07/21 06:43:27;;;;;;;11.48;7.35;;;20.40;99.80;;;;;;5008533;28;20064;-76
2021/07/21 06:45:52;;;;;;;19.65;8.25;;;20.00;99.90;;;;;;5007890;28;20026;-75
2021/07/21 06:48:18;;;;;;;10.52;7.63;;;20.30;99.90;;;;;;5008711;28;20029;-76
2021/07/21 06:50:44;;;;;;;8.23;5.85;;;20.60;99.70;;;;;;5012761;28;20030;-76
2021/07/21 06:53:10;;;;;;;12.02;7.32;;;20.70;99.10;;;;;;5020615;28;20044;-76
2021/07/21 06:55:35;;;;;;;8.65;6.75;;;20.90;98.60;;;;;;5017953;28;20034;-75
2021/07/21 06:58:02;;;;;;;10.15;7.30;;;21.10;98.50;;;;;;5008979;28;20112;-76
2021/07/21 07:00:29;;;;;;;8.80;6.63;;;21.60;97.80;;;;;;5008943;28;20026;-76
2021/07/21 07:02:54;;;;;;;7.00;5.93;;;21.70;97.70;;;;;;5004955;28;20026;-77
2021/07/21 07:05:20;;;;;;;9.60;6.15;;;23.00;96.10;;;;;;5010231;28;20041;-76
2021/07/21 07:07:48;;;;;;;7.57;5.57;;;23.50;94.20;;;;;;5011555;28;20072;-76
2021/07/21 07:10:14;;;;;;;9.10;6.32;;;23.60;93.40;;;;;;5013959;28;20041;-75
2021/07/21 07:12:40;;;;;;;9.70;6.20;;;23.20;93.50;;;;;;5020845;28;20480;-76
2021/07/21 07:15:07;;;;;;;9.63;6.28;;;23.40;93.60;;;;;;5012926;28;20040;-77
2021/07/21 07:17:33;;;;;;;7.65;6.20;;;23.40;93.30;;;;;;5009489;28;20032;-76
2021/07/21 07:19:59;;;;;;;8.73;5.72;;;23.70;92.50;;;;;;5009634;28;20034;-76
2021/07/21 07:22:25;;;;;;;9.50;6.03;;;23.60;92.20;;;;;;5004521;28;20044;-76
2021/07/21 07:24:50;;;;;;;7.28;5.65;;;23.80;91.90;;;;;;5013068;28;20121;-77
2021/07/21 07:27:16;;;;;;;8.23;5.85;;;24.20;91.60;;;;;;5011992;28;20049;-78
2021/07/21 07:29:41;;;;;;;10.02;6.32;;;24.80;90.20;;;;;;5012362;28;20103;-77
2021/07/21 07:32:07;;;;;;;6.18;5.35;;;24.90;90.10;;;;;;5011129;28;20125;-77
2021/07/21 07:34:32;;;;;;;6.00;4.82;;;26.10;88.40;;;;;;5011255;28;20029;-77
2021/07/21 07:36:58;;;;;;;8.27;5.80;;;27.30;84.20;;;;;;5011846;28;20468;-77
2021/07/21 07:39:24;;;;;;;8.10;5.38;;;28.00;81.10;;;;;;4993510;28;20056;-78
2021/07/21 07:41:50;;;;;;;6.68;5.70;;;27.10;80.50;;;;;;5011245;28;20030;-78
2021/07/21 07:44:16;;;;;;;7.00;5.50;;;27.00;80.30;;;;;;5011596;28;20030;-78
2021/07/21 07:46:42;;;;;;;6.80;4.95;;;26.60;80.50;;;;;;5011498;28;20029;-78
2021/07/21 07:49:08;;;;;;;6.68;5.50;;;26.10;80.50;;;;;;5011376;28;20029;-78
2021/07/21 07:51:34;;;;;;;6.25;5.47;;;27.70;77.90;;;;;;5011530;28;20053;-78
2021/07/21 07:54:03;;;;;;;6.00;5.15;;;27.80;76.60;;;;;;5011599;28;20033;-78
2021/07/21 07:56:29;;;;;;;6.53;5.05;;;27.10;77.70;;;;;;5012542;28;20057;-78
2021/07/21 07:58:55;;;;;;;10.98;8.38;;;25.30;80.40;;;;;;5007648;28;20033;-78
2021/07/21 08:01:20;;;;;;;6.68;5.35;;;25.40;80.20;;;;;;5011257;28;20018;-78
2021/07/21 08:03:46;;;;;;;4.72;4.20;;;25.40;80.10;;;;;;5010155;28;20026;-77
2021/07/21 08:06:12;;;;;;;8.25;4.78;;;26.60;78.20;;;;;;4999264;28;20113;-76
2021/07/21 08:08:37;;;;;;;6.03;5.38;;;27.00;76.00;;;;;;5006752;28;20390;-77
2021/07/21 08:11:05;;;;;;;7.68;5.57;;;27.40;75.80;;;;;;5008226;28;20018;-76
2021/07/21 08:13:32;;;;;;;6.88;6.18;;;27.60;74.80;;;;;;5009049;28;20037;-75
2021/07/21 08:15:58;;;;;;;6.32;5.68;;;26.90;76.80;;;;;;5008156;28;20036;-77
2021/07/21 08:18:23;;;;;;;8.45;6.05;;;26.20;77.80;;;;;;5008582;28;20026;-77
2021/07/21 08:20:49;;;;;;;7.88;5.78;;;26.00;78.50;;;;;;5010473;28;20022;-77
2021/07/21 08:23:15;;;;;;;6.07;4.75;;;26.10;77.00;;;;;;5005342;28;20069;-77
2021/07/21 08:25:42;;;;;;;9.00;5.43;;;26.10;77.70;;;;;;5010032;28;20472;-77
2021/07/21 08:28:08;;;;;;;7.97;5.80;;;25.20;78.50;;;;;;5006367;28;20040;-76
2021/07/21 08:30:34;;;;;;;6.15;5.05;;;25.00;79.90;;;;;;5010169;28;20437;-76
2021/07/21 08:33:00;;;;;;;8.57;5.80;;;24.90;79.70;;;;;;4989818;28;20040;-76
2021/07/21 08:35:28;;;;;;;7.32;5.38;;;24.90;80.00;;;;;;5006154;28;20054;-76
2021/07/21 08:37:55;;;;;;;6.18;4.82;;;25.30;77.50;;;;;;5002301;28;20030;-76
2021/07/21 08:40:22;;;;;;;8.73;6.18;;;25.30;77.90;;;;;;5007947;28;20103;-76
2021/07/21 08:42:48;;;;;;;6.70;5.47;;;25.20;78.50;;;;;;5007509;28;20029;-76
2021/07/21 08:45:14;;;;;;;6.90;5.43;;;25.10;79.10;;;;;;5005743;28;20034;-76
2021/07/21 08:47:40;;;;;;;11.85;8.95;;;25.30;79.30;;;;;;5007650;28;20029;-77
2021/07/21 08:50:07;;;;;;;12.20;8.25;;;25.40;78.40;;;;;;5010251;28;20080;-76
2021/07/21 08:52:34;;;;;;;8.23;6.82;;;24.70;80.40;;;;;;5010143;28;20029;-76
2021/07/21 08:55:02;;;;;;;8.20;5.93;;;25.10;80.00;;;;;;5014566;28;20045;-76
2021/07/21 08:57:29;;;;;;;8.88;6.25;;;25.10;79.30;;;;;;5013014;28;20828;-75
2021/07/21 08:59:56;;;;;;;7.07;5.65;;;24.70;80.60;;;;;;5009895;28;20033;-78
2021/07/21 09:02:26;;;;;;;5.80;5.20;;;25.30;78.80;;;;;;4988754;28;20026;-76
2021/07/21 09:04:53;;;;;;;6.35;5.63;;;24.90;78.60;;;;;;5010149;28;20022;-77
2021/07/21 09:07:19;;;;;;;5.30;4.80;;;24.90;79.20;;;;;;4988163;28;20056;-78
2021/07/21 09:09:46;;;;;;;6.47;4.53;;;24.00;77.60;;;;;;5004401;28;20023;-77
2021/07/21 09:12:15;;;;;;;6.50;4.97;;;25.40;78.30;;;;;;4992625;28;20052;-77
2021/07/21 09:14:44;;;;;;;5.85;4.90;;;25.10;77.90;;;;;;4992939;28;20026;-78
2021/07/21 09:17:14;;;;;;;6.40;4.75;;;24.20;78.60;;;;;;5009175;28;20021;-76
2021/07/21 09:19:49;;;;;;;5.57;5.05;;;24.30;79.00;;;;;;5009232;28;20018;-78
2021/07/21 09:22:35;;;;;;;8.70;5.40;;;24.10;79.80;;;;;;5004454;28;20037;-76
2021/07/21 09:25:31;;;;;;;6.55;4.85;;;24.20;80.30;;;;;;4997539;28;20017;-77
2021/07/21 09:27:59;;;;;;;7.93;4.72;;;23.50;81.10;;;;;;4992755;28;20034;-76
2021/07/21 09:30:27;;;;;;;6.60;5.43;;;23.30;81.90;;;;;;5008075;28;20061;-75
2021/07/21 09:33:03;;;;;;;6.35;4.85;;;;;;;;;;5009451;28;20049;-77
2021/07/21 09:35:49;;;;;;;6.50;4.93;;;22.60;85.20;;;;;;5009690;28;20029;-76
2021/07/21 09:38:24;;;;;;;7.18;5.32;;;22.60;85.30;;;;;;5005549;28;20033;-76
2021/07/21 09:40:52;;;;;;;6.00;4.78;;;22.90;85.40;;;;;;5009555;28;20113;-77
2021/07/21 09:43:25;;;;;;;7.07;4.80;;;23.00;83.70;;;;;;5009810;28;20087;-77
2021/07/21 09:46:13;;;;;;;7.68;5.00;;;23.00;84.10;;;;;;5010761;28;20105;-76
2021/07/21 09:48:49;;;;;;;6.13;4.80;;;23.00;84.30;;;;;;5007536;28;20071;-76
2021/07/21 09:51:35;;;;;;;6.13;4.75;;;23.10;83.70;;;;;;5007949;28;20459;-76
2021/07/21 09:54:17;;;;;;;6.38;4.38;;;22.90;83.90;;;;;;4999227;28;20411;-76
2021/07/21 09:56:48;;;;;;;6.68;4.25;;;22.90;84.40;;;;;;5008721;28;20026;-75
2021/07/21 09:59:22;;;;;;;5.28;4.15;;;23.10;84.10;;;;;;5006437;28;20034;-76
2021/07/21 10:02:10;;;;;;;5.20;4.05;;;23.30;82.00;;;;;;5006997;28;20030;-76
2021/07/21 10:04:38;;;;;;;4.53;3.40;;;24.10;78.40;;;;;;4989292;28;20033;-78
2021/07/21 10:07:51;;;;;;;4.18;3.40;;;24.20;77.90;;;;;;5009853;28;20280;-77
2021/07/21 10:09:51;;;;;;;4.35;3.42;;;23.80;77.30;;;;;;4998087;28;20645;-76
2021/07/21 10:12:18;;;;;;;4.85;3.63;;;24.30;78.00;;;;;;5010507;28;20090;-75
2021/07/21 10:14:59;;;;;;;4.55;3.67;;;25.20;76.20;;;;;;5010024;28;20080;-77
2021/07/21 10:17:27;;;;;;;4.57;3.70;;;25.90;74.70;;;;;;5009830;28;20072;-77
2021/07/21 10:19:53;;;;;;;5.43;3.88;;;26.50;73.90;;;;;;5010438;28;20121;-76
2021/07/21 10:22:19;;;;;;;4.03;3.33;;;27.00;72.90;;;;;;5010598;28;20109;-76
2021/07/21 10:24:47;;;;;;;5.72;3.65;;;27.10;70.10;;;;;;5021260;28;20049;-75
2021/07/21 10:27:13;;;;;;;4.22;3.15;;;27.10;70.80;;;;;;5021599;28;20045;-76
2021/07/21 10:29:38;;;;;;;4.53;3.45;;;29.10;67.70;;;;;;5019972;28;20026;-76
2021/07/21 10:32:04;;;;;;;5.65;2.92;;;30.60;64.10;;;;;;5019716;28;20061;-76
2021/07/21 10:34:31;;;;;;;3.50;3.17;;;30.10;64.30;;;;;;5016005;28;20033;-76
2021/07/21 10:36:57;;;;;;;3.45;3.15;;;;;;;;;;5016573;28;20029;-77
2021/07/21 10:39:30;;;;;;;4.95;3.60;;;29.00;62.60;;;;;;5025827;28;20098;-76
2021/07/21 10:41:56;;;;;;;4.78;4.00;;;29.10;63.60;;;;;;5023331;28;20102;-77
2021/07/21 10:44:21;;;;;;;4.75;3.30;;;28.10;64.60;;;;;;5023728;28;20026;-76
2021/07/21 10:46:54;;;;;;;3.33;2.97;;;28.40;64.30;;;;;;5020989;28;20034;-77
2021/07/21 10:49:39;;;;;;;3.85;3.00;;;26.90;64.60;;;;;;5021531;28;20057;-76
2021/07/21 10:55:06;;;;;;;6.80;5.55;;;25.80;68.00;;;;;;5019211;28;20233;-77
2021/07/21 11:00:37;;;;;;;3.47;3.10;;;25.60;68.70;;;;;;5010768;28;20309;-76
2021/07/21 11:03:22;;;;;;;3.60;3.28;;;25.60;68.80;;;;;;5005554;28;20024;-77
2021/07/21 11:06:07;;;;;;;4.43;3.22;;;24.80;68.60;;;;;;5008735;28;20112;-76
2021/07/21 11:08:43;;;;;;;4.25;3.33;;;23.90;70.70;;;;;;5008326;28;20026;-77
2021/07/21 11:11:17;;;;;;;4.72;3.38;;;24.00;71.90;;;;;;5007106;28;20037;-77
2021/07/21 11:13:43;;;;;;;4.72;2.75;;;24.50;71.40;;;;;;5009842;28;20036;-77
2021/07/21 11:16:43;;;;;;;4.75;3.72;;;24.40;70.40;;;;;;5008469;28;20018;-77
2021/07/21 11:19:28;;;;;;;4.45;3.40;;;25.30;68.80;;;;;;5003674;28;20061;-76
2021/07/21 11:21:54;;;;;;;5.13;3.75;;;25.30;69.80;;;;;;5008177;28;20815;-76
2021/07/21 11:24:20;;;;;;;4.63;3.60;;;25.50;68.60;;;;;;5008060;28;20040;-77
2021/07/21 11:26:50;;;;;;;5.97;4.22;;;25.70;68.30;;;;;;5007505;28;20025;-77
2021/07/21 11:29:27;;;;;;;10.15;3.75;;;25.00;69.50;;;;;;5008198;28;20030;-77
2021/07/21 11:31:56;;;;;;;5.72;3.00;;;25.00;71.00;;;;;;5007553;28;20354;-77
2021/07/21 11:34:35;;;;;;;5.88;3.33;;;25.30;70.10;;;;;;5008314;28;20470;-77
2021/07/21 11:37:06;;;;;;;5.47;2.92;;;25.30;70.20;;;;;;5003838;28;20342;-77
2021/07/21 11:39:50;;;;;;;;;;;25.20;70.10;;;;;;5004423;28;20030;-77
2021/07/21 11:42:29;;;;;;;5.13;3.03;;;25.40;70.40;;;;;;5005802;28;19913;-76
2021/07/21 11:45:08;;;;;;;3.03;2.72;;;25.40;69.70;;;;;;5007922;28;20035;-76
2021/07/21 11:47:39;;;;;;;4.65;3.20;;;25.40;69.50;;;;;;5003901;28;20038;-77
2021/07/21 11:50:14;;;;;;;4.40;3.05;;;25.10;69.50;;;;;;5004092;28;20539;-78
2021/07/21 11:52:40;;;;;;;3.45;2.78;;;24.80;70.50;;;;;;5008113;28;20026;-78
2021/07/21 11:55:07;;;;;;;3.60;3.03;;;24.50;71.70;;;;;;5007918;28;20049;-76
2021/07/21 11:57:33;;;;;;;7.60;3.60;;;24.10;72.50;;;;;;5006929;28;20022;-77
2021/07/21 12:00:02;;;;;;;7.60;3.65;;;23.90;74.10;;;;;;5007679;28;20060;-77
2021/07/21 12:02:30;;;;;;;4.55;3.20;;;23.70;74.10;;;;;;5008418;28;20033;-77
2021/07/21 12:04:58;;;;;;;6.57;3.50;;;23.70;74.60;;;;;;5007586;28;20133;-77
2021/07/21 12:07:35;;;;;;;5.60;3.78;;;23.30;74.60;;;;;;5006838;28;20045;-77
2021/07/21 12:10:15;;;;;;;5.78;3.60;;;23.30;75.60;;;;;;5007287;28;20361;-76
2021/07/21 12:12:41;;;;;;;6.03;3.93;;;23.10;75.60;;;;;;5008940;28;20025;-77
2021/07/21 12:15:08;;;;;;;4.93;3.35;;;23.20;75.90;;;;;;5011526;28;20281;-77
2021/07/21 12:17:34;;;;;;;6.45;3.90;;;23.20;76.40;;;;;;5014023;28;20029;-77
2021/07/21 12:20:04;;;;;;;7.88;3.30;;;23.40;76.30;;;;;;5017803;28;20049;-76
2021/07/21 12:22:32;;;;;;;6.28;3.63;;;23.50;75.80;;;;;;5018609;28;20060;-76
2021/07/21 12:24:59;;;;;;;8.65;4.28;;;23.50;75.90;;;;;;5014154;28;20380;-76
2021/07/21 12:27:28;;;;;;;6.43;4.07;;;23.50;75.80;;;;;;5011299;28;20113;-76
2021/07/21 12:29:57;;;;;;;6.28;3.65;;;23.70;76.30;;;;;;5010553;28;20431;-77
2021/07/21 12:32:25;;;;;;;7.50;4.90;;;23.70;75.10;;;;;;5011265;28;20146;-76
2021/07/21 12:34:56;;;;;;;3.75;3.35;;;23.30;75.60;;;;;;5010395;28;20116;-76
2021/07/21 12:37:25;;;;;;;;;;;23.00;76.90;;;;;;5011046;28;20431;-76
2021/07/21 12:39:53;;;;;;;7.80;5.53;;;22.70;77.70;;;;;;5010284;28;19909;-76
2021/07/21 12:42:24;;;;;;;7.28;3.63;;;22.50;78.20;;;;;;5010541;28;20026;-77
2021/07/21 12:45:01;;;;;;;6.03;3.33;;;22.50;78.70;;;;;;5010081;28;20101;-77
2021/07/21 12:47:30;;;;;;;5.15;4.20;;;22.60;78.40;;;;;;4990708;28;20072;-76
2021/07/21 12:50:08;;;;;;;8.40;4.18;;;22.60;78.70;;;;;;5010192;28;20038;-76
2021/07/21 12:52:39;;;;;;;4.32;2.97;;;22.60;78.30;;;;;;5006886;28;20026;-76
2021/07/21 12:55:06;;;;;;;5.47;3.58;;;22.80;78.30;;;;;;5006647;28;20072;-77
2021/07/21 12:57:45;;;;;;;6.82;4.10;;;23.00;78.00;;;;;;5005840;28;20057;-77
2021/07/21 13:00:19;;;;;;;6.22;4.47;;;23.00;77.70;;;;;;5007080;28;20025;-78